sensor_id;sensor_type;location;lat;lon;timestamp;P1;durP1;ratioP1;P2;durP2;ratioP2
30998;SDS011;20549;50.042;8.968;2023-04-09T00:00:14;5.03;;;4.60;;
30998;SDS011;20549;50.042;8.968;2023-04-09T00:02:40;5.20;;;4.70;;
30998;SDS011;20549;50.042;8.968;2023-04-09T00:05:07;5.00;;;4.47;;
30998;SDS011;20549;50.042;8.968;2023-04-09T00:07:34;5.23;;;4.73;;
30998;SDS011;20549;50.042;8.968;2023-04-09T00:10:00;5.90;;;5.30;;
30998;SDS011;20549;50.042;8.968;2023-04-09T00:12:27;6.00;;;5.27;;
30998;SDS011;20549;50.042;8.968;2023-04-09T00:14:53;6.00;;;5.40;;
30998;SDS011;20549;50.042;8.968;2023-04-09T00:17:20;5.40;;;4.90;;
30998;SDS011;20549;50.042;8.968;2023-04-09T00:19:47;6.47;;;5.87;;
30998;SDS011;20549;50.042;8.968;2023-04-09T00:22:13;6.50;;;5.60;;
30998;SDS011;20549;50.042;8.968;2023-04-09T00:24:40;6.83;;;5.90;;
30998;SDS011;20549;50.042;8.968;2023-04-09T00:27:06;7.87;;;6.53;;
30998;SDS011;20549;50.042;8.968;2023-04-09T00:29:33;7.17;;;6.33;;
30998;SDS011;20549;50.042;8.968;2023-04-09T00:31:59;6.90;;;6.20;;
30998;SDS011;20549;50.042;8.968;2023-04-09T00:34:26;6.37;;;5.70;;
30998;SDS011;20549;50.042;8.968;2023-04-09T00:36:53;7.27;;;6.10;;
30998;SDS011;20549;50.042;8.968;2023-04-09T00:39:19;5.83;;;5.23;;
30998;SDS011;20549;50.042;8.968;2023-04-09T00:41:46;5.97;;;5.37;;
30998;SDS011;20549;50.042;8.968;2023-04-09T00:44:12;6.23;;;5.63;;
30998;SDS011;20549;50.042;8.968;2023-04-09T00:46:39;6.23;;;5.63;;
30998;SDS011;20549;50.042;8.968;2023-04-09T00:49:05;5.97;;;5.27;;
30998;SDS011;20549;50.042;8.968;2023-04-09T00:51:32;7.07;;;5.70;;
30998;SDS011;20549;50.042;8.968;2023-04-09T00:53:59;6.00;;;5.40;;
30998;SDS011;20549;50.042;8.968;2023-04-09T00:56:25;6.47;;;5.83;;
30998;SDS011;20549;50.042;8.968;2023-04-09T00:58:52;7.20;;;5.93;;
30998;SDS011;20549;50.042;8.968;2023-04-09T01:01:18;7.43;;;6.53;;
30998;SDS011;20549;50.042;8.968;2023-04-09T01:03:45;7.73;;;6.60;;
30998;SDS011;20549;50.042;8.968;2023-04-09T01:12:04;6.10;;;5.47;;
30998;SDS011;20549;50.042;8.968;2023-04-09T01:14:37;6.20;;;5.60;;
30998;SDS011;20549;50.042;8.968;2023-04-09T01:17:08;5.97;;;5.37;;
30998;SDS011;20549;50.042;8.968;2023-04-09T01:19:33;6.90;;;5.83;;
30998;SDS011;20549;50.042;8.968;2023-04-09T01:23:13;6.00;;;5.23;;
30998;SDS011;20549;50.042;8.968;2023-04-09T01:24:54;7.20;;;5.60;;
30998;SDS011;20549;50.042;8.968;2023-04-09T01:27:13;6.17;;;5.57;;
30998;SDS011;20549;50.042;8.968;2023-04-09T01:29:46;6.63;;;5.17;;
30998;SDS011;20549;50.042;8.968;2023-04-09T01:32:09;5.73;;;5.13;;
30998;SDS011;20549;50.042;8.968;2023-04-09T01:34:36;6.00;;;5.40;;
30998;SDS011;20549;50.042;8.968;2023-04-09T01:37:03;7.77;;;5.90;;
30998;SDS011;20549;50.042;8.968;2023-04-09T01:39:29;6.40;;;5.57;;
30998;SDS011;20549;50.042;8.968;2023-04-09T01:41:56;7.60;;;6.00;;
30998;SDS011;20549;50.042;8.968;2023-04-09T01:44:22;6.07;;;5.40;;
30998;SDS011;20549;50.042;8.968;2023-04-09T01:46:49;5.70;;;5.10;;
30998;SDS011;20549;50.042;8.968;2023-04-09T01:49:16;5.93;;;5.33;;
30998;SDS011;20549;50.042;8.968;2023-04-09T01:51:42;5.80;;;5.20;;
30998;SDS011;20549;50.042;8.968;2023-04-09T01:54:09;6.03;;;5.03;;
30998;SDS011;20549;50.042;8.968;2023-04-09T01:56:42;6.43;;;5.17;;
30998;SDS011;20549;50.042;8.968;2023-04-09T01:59:08;6.33;;;5.13;;
30998;SDS011;20549;50.042;8.968;2023-04-09T02:01:37;6.10;;;5.47;;
30998;SDS011;20549;50.042;8.968;2023-04-09T02:04:02;6.83;;;6.13;;
30998;SDS011;20549;50.042;8.968;2023-04-09T02:06:36;6.90;;;5.53;;
30998;SDS011;20549;50.042;8.968;2023-04-09T02:09:00;5.50;;;4.80;;
30998;SDS011;20549;50.042;8.968;2023-04-09T02:11:27;6.17;;;4.90;;
30998;SDS011;20549;50.042;8.968;2023-04-09T02:13:53;6.23;;;4.93;;
30998;SDS011;20549;50.042;8.968;2023-04-09T02:16:20;6.33;;;5.73;;
30998;SDS011;20549;50.042;8.968;2023-04-09T02:18:46;6.80;;;5.50;;
30998;SDS011;20549;50.042;8.968;2023-04-09T02:21:13;6.07;;;5.43;;
30998;SDS011;20549;50.042;8.968;2023-04-09T02:23:39;6.20;;;5.60;;
30998;SDS011;20549;50.042;8.968;2023-04-09T02:26:06;6.43;;;5.40;;
30998;SDS011;20549;50.042;8.968;2023-04-09T02:28:33;6.63;;;5.40;;
30998;SDS011;20549;50.042;8.968;2023-04-09T02:30:59;6.37;;;5.30;;
30998;SDS011;20549;50.042;8.968;2023-04-09T02:33:26;6.07;;;5.43;;
30998;SDS011;20549;50.042;8.968;2023-04-09T02:35:52;6.47;;;5.00;;
30998;SDS011;20549;50.042;8.968;2023-04-09T02:38:19;5.67;;;5.10;;
30998;SDS011;20549;50.042;8.968;2023-04-09T02:40:46;6.67;;;5.27;;
30998;SDS011;20549;50.042;8.968;2023-04-09T02:43:12;5.77;;;5.07;;
30998;SDS011;20549;50.042;8.968;2023-04-09T02:45:39;5.07;;;4.57;;
30998;SDS011;20549;50.042;8.968;2023-04-09T02:48:05;5.30;;;4.80;;
30998;SDS011;20549;50.042;8.968;2023-04-09T02:50:32;7.10;;;5.60;;
30998;SDS011;20549;50.042;8.968;2023-04-09T02:52:58;5.57;;;5.00;;
30998;SDS011;20549;50.042;8.968;2023-04-09T02:55:25;6.33;;;5.67;;
30998;SDS011;20549;50.042;8.968;2023-04-09T02:57:52;6.80;;;5.70;;
30998;SDS011;20549;50.042;8.968;2023-04-09T03:00:18;7.30;;;6.47;;
30998;SDS011;20549;50.042;8.968;2023-04-09T03:02:45;6.53;;;5.90;;
30998;SDS011;20549;50.042;8.968;2023-04-09T03:05:11;5.53;;;5.03;;
30998;SDS011;20549;50.042;8.968;2023-04-09T03:07:38;6.00;;;4.97;;
30998;SDS011;20549;50.042;8.968;2023-04-09T03:10:05;5.97;;;5.37;;
30998;SDS011;20549;50.042;8.968;2023-04-09T03:12:31;4.67;;;4.27;;
30998;SDS011;20549;50.042;8.968;2023-04-09T03:14:58;5.67;;;5.17;;
30998;SDS011;20549;50.042;8.968;2023-04-09T03:17:24;5.73;;;5.10;;
30998;SDS011;20549;50.042;8.968;2023-04-09T03:19:51;4.67;;;4.27;;
30998;SDS011;20549;50.042;8.968;2023-04-09T03:22:18;5.77;;;5.17;;
30998;SDS011;20549;50.042;8.968;2023-04-09T03:24:44;5.63;;;5.03;;
30998;SDS011;20549;50.042;8.968;2023-04-09T03:27:11;5.87;;;5.20;;
30998;SDS011;20549;50.042;8.968;2023-04-09T03:29:37;6.10;;;5.50;;
30998;SDS011;20549;50.042;8.968;2023-04-09T03:32:04;5.93;;;4.77;;
30998;SDS011;20549;50.042;8.968;2023-04-09T03:34:30;5.73;;;5.13;;
30998;SDS011;20549;50.042;8.968;2023-04-09T03:36:57;5.13;;;4.63;;
30998;SDS011;20549;50.042;8.968;2023-04-09T03:39:24;6.33;;;5.70;;
30998;SDS011;20549;50.042;8.968;2023-04-09T03:41:50;5.40;;;4.90;;
30998;SDS011;20549;50.042;8.968;2023-04-09T03:44:17;6.53;;;5.53;;
30998;SDS011;20549;50.042;8.968;2023-04-09T03:46:43;7.33;;;5.13;;
30998;SDS011;20549;50.042;8.968;2023-04-09T03:49:10;5.77;;;5.27;;
30998;SDS011;20549;50.042;8.968;2023-04-09T03:51:36;6.03;;;4.80;;
30998;SDS011;20549;50.042;8.968;2023-04-09T03:54:03;5.60;;;5.00;;
30998;SDS011;20549;50.042;8.968;2023-04-09T03:56:30;5.73;;;5.23;;
30998;SDS011;20549;50.042;8.968;2023-04-09T03:58:56;5.37;;;4.87;;
30998;SDS011;20549;50.042;8.968;2023-04-09T04:01:23;5.77;;;5.17;;
30998;SDS011;20549;50.042;8.968;2023-04-09T04:03:49;6.30;;;5.30;;
30998;SDS011;20549;50.042;8.968;2023-04-09T04:06:16;7.93;;;5.53;;
30998;SDS011;20549;50.042;8.968;2023-04-09T04:08:43;6.47;;;5.87;;
30998;SDS011;20549;50.042;8.968;2023-04-09T04:11:09;7.87;;;6.50;;
30998;SDS011;20549;50.042;8.968;2023-04-09T04:13:36;6.07;;;5.47;;
30998;SDS011;20549;50.042;8.968;2023-04-09T04:16:05;5.83;;;5.33;;
30998;SDS011;20549;50.042;8.968;2023-04-09T04:18:29;6.07;;;5.40;;
30998;SDS011;20549;50.042;8.968;2023-04-09T04:20:55;6.30;;;5.67;;
30998;SDS011;20549;50.042;8.968;2023-04-09T04:23:22;6.03;;;5.43;;
30998;SDS011;20549;50.042;8.968;2023-04-09T04:25:49;6.23;;;5.50;;
30998;SDS011;20549;50.042;8.968;2023-04-09T04:28:15;5.60;;;5.10;;
30998;SDS011;20549;50.042;8.968;2023-04-09T04:30:42;6.07;;;5.47;;
30998;SDS011;20549;50.042;8.968;2023-04-09T04:33:08;6.37;;;5.67;;
30998;SDS011;20549;50.042;8.968;2023-04-09T04:35:35;6.00;;;5.40;;
30998;SDS011;20549;50.042;8.968;2023-04-09T04:38:02;6.00;;;5.40;;
30998;SDS011;20549;50.042;8.968;2023-04-09T04:40:28;5.70;;;5.20;;
30998;SDS011;20549;50.042;8.968;2023-04-09T04:42:55;5.93;;;5.33;;
30998;SDS011;20549;50.042;8.968;2023-04-09T04:45:21;6.10;;;5.27;;
30998;SDS011;20549;50.042;8.968;2023-04-09T04:47:48;5.90;;;5.30;;
30998;SDS011;20549;50.042;8.968;2023-04-09T04:50:15;6.37;;;5.53;;
30998;SDS011;20549;50.042;8.968;2023-04-09T04:52:41;6.80;;;5.37;;
30998;SDS011;20549;50.042;8.968;2023-04-09T04:55:08;6.60;;;6.00;;
30998;SDS011;20549;50.042;8.968;2023-04-09T04:57:34;6.77;;;5.40;;
30998;SDS011;20549;50.042;8.968;2023-04-09T05:00:01;7.17;;;5.13;;
30998;SDS011;20549;50.042;8.968;2023-04-09T05:02:27;6.07;;;5.47;;
30998;SDS011;20549;50.042;8.968;2023-04-09T05:04:54;5.87;;;5.27;;
30998;SDS011;20549;50.042;8.968;2023-04-09T05:07:21;6.33;;;5.67;;
30998;SDS011;20549;50.042;8.968;2023-04-09T05:09:47;5.53;;;5.03;;
30998;SDS011;20549;50.042;8.968;2023-04-09T05:12:14;6.77;;;6.07;;
30998;SDS011;20549;50.042;8.968;2023-04-09T05:14:40;7.57;;;5.93;;
30998;SDS011;20549;50.042;8.968;2023-04-09T05:17:07;6.70;;;5.63;;
30998;SDS011;20549;50.042;8.968;2023-04-09T05:19:34;6.10;;;5.50;;
30998;SDS011;20549;50.042;8.968;2023-04-09T05:22:00;6.20;;;5.60;;
30998;SDS011;20549;50.042;8.968;2023-04-09T05:24:27;5.77;;;5.13;;
30998;SDS011;20549;50.042;8.968;2023-04-09T05:26:53;6.63;;;5.43;;
30998;SDS011;20549;50.042;8.968;2023-04-09T05:29:20;7.63;;;5.83;;
30998;SDS011;20549;50.042;8.968;2023-04-09T05:31:46;6.27;;;5.67;;
30998;SDS011;20549;50.042;8.968;2023-04-09T05:34:13;6.10;;;5.50;;
30998;SDS011;20549;50.042;8.968;2023-04-09T05:36:40;6.60;;;5.93;;
30998;SDS011;20549;50.042;8.968;2023-04-09T05:39:06;7.00;;;6.20;;
30998;SDS011;20549;50.042;8.968;2023-04-09T05:41:33;6.40;;;5.80;;
30998;SDS011;20549;50.042;8.968;2023-04-09T05:43:59;7.27;;;6.10;;
30998;SDS011;20549;50.042;8.968;2023-04-09T05:46:26;7.33;;;6.03;;
30998;SDS011;20549;50.042;8.968;2023-04-09T05:48:53;7.63;;;6.70;;
30998;SDS011;20549;50.042;8.968;2023-04-09T05:51:19;9.83;;;6.20;;
30998;SDS011;20549;50.042;8.968;2023-04-09T05:53:46;7.07;;;6.37;;
30998;SDS011;20549;50.042;8.968;2023-04-09T05:56:13;7.17;;;6.40;;
30998;SDS011;20549;50.042;8.968;2023-04-09T05:58:39;7.57;;;6.87;;
30998;SDS011;20549;50.042;8.968;2023-04-09T06:01:05;7.93;;;6.50;;
30998;SDS011;20549;50.042;8.968;2023-04-09T06:03:32;6.63;;;6.00;;
30998;SDS011;20549;50.042;8.968;2023-04-09T06:05:59;6.57;;;5.97;;
30998;SDS011;20549;50.042;8.968;2023-04-09T06:08:25;7.27;;;6.57;;
30998;SDS011;20549;50.042;8.968;2023-04-09T06:10:52;8.33;;;7.17;;
30998;SDS011;20549;50.042;8.968;2023-04-09T06:13:18;6.93;;;6.17;;
30998;SDS011;20549;50.042;8.968;2023-04-09T06:15:45;7.43;;;6.63;;
30998;SDS011;20549;50.042;8.968;2023-04-09T06:18:12;7.67;;;6.97;;
30998;SDS011;20549;50.042;8.968;2023-04-09T06:20:38;8.03;;;7.10;;
30998;SDS011;20549;50.042;8.968;2023-04-09T06:23:05;7.70;;;6.90;;
30998;SDS011;20549;50.042;8.968;2023-04-09T06:25:31;8.13;;;7.30;;
30998;SDS011;20549;50.042;8.968;2023-04-09T06:27:58;7.00;;;6.30;;
30998;SDS011;20549;50.042;8.968;2023-04-09T06:30:24;7.87;;;7.00;;
30998;SDS011;20549;50.042;8.968;2023-04-09T06:32:51;8.73;;;7.43;;
30998;SDS011;20549;50.042;8.968;2023-04-09T06:35:18;7.40;;;6.70;;
30998;SDS011;20549;50.042;8.968;2023-04-09T06:37:44;7.90;;;7.00;;
30998;SDS011;20549;50.042;8.968;2023-04-09T06:40:11;9.37;;;7.47;;
30998;SDS011;20549;50.042;8.968;2023-04-09T06:42:37;10.73;;;8.23;;
30998;SDS011;20549;50.042;8.968;2023-04-09T06:45:04;7.77;;;6.97;;
30998;SDS011;20549;50.042;8.968;2023-04-09T06:47:33;8.50;;;7.60;;
30998;SDS011;20549;50.042;8.968;2023-04-09T06:50:00;8.67;;;7.77;;
30998;SDS011;20549;50.042;8.968;2023-04-09T06:52:26;9.73;;;8.10;;
30998;SDS011;20549;50.042;8.968;2023-04-09T06:54:53;9.10;;;8.20;;
30998;SDS011;20549;50.042;8.968;2023-04-09T06:57:20;8.37;;;7.57;;
30998;SDS011;20549;50.042;8.968;2023-04-09T06:59:46;8.50;;;7.70;;
30998;SDS011;20549;50.042;8.968;2023-04-09T07:02:13;9.77;;;8.73;;
30998;SDS011;20549;50.042;8.968;2023-04-09T07:04:39;9.47;;;8.50;;
30998;SDS011;20549;50.042;8.968;2023-04-09T07:07:06;9.23;;;8.23;;
30998;SDS011;20549;50.042;8.968;2023-04-09T07:09:32;8.93;;;8.03;;
30998;SDS011;20549;50.042;8.968;2023-04-09T07:11:59;9.67;;;7.90;;
30998;SDS011;20549;50.042;8.968;2023-04-09T07:14:26;8.45;;;7.55;;
30998;SDS011;20549;50.042;8.968;2023-04-09T07:16:52;9.13;;;7.97;;
30998;SDS011;20549;50.042;8.968;2023-04-09T07:19:19;8.93;;;8.00;;
30998;SDS011;20549;50.042;8.968;2023-04-09T07:21:45;8.80;;;7.78;;
30998;SDS011;20549;50.042;8.968;2023-04-09T07:24:12;8.80;;;7.90;;
30998;SDS011;20549;50.042;8.968;2023-04-09T07:26:39;8.63;;;7.83;;
30998;SDS011;20549;50.042;8.968;2023-04-09T07:29:05;8.20;;;7.40;;
30998;SDS011;20549;50.042;8.968;2023-04-09T07:31:32;9.10;;;8.20;;
30998;SDS011;20549;50.042;8.968;2023-04-09T07:33:58;8.35;;;7.60;;
30998;SDS011;20549;50.042;8.968;2023-04-09T07:36:25;9.00;;;7.87;;
30998;SDS011;20549;50.042;8.968;2023-04-09T07:38:52;8.78;;;7.90;;
30998;SDS011;20549;50.042;8.968;2023-04-09T07:41:18;9.10;;;7.90;;
30998;SDS011;20549;50.042;8.968;2023-04-09T07:43:45;8.90;;;8.10;;
30998;SDS011;20549;50.042;8.968;2023-04-09T07:46:16;7.75;;;6.95;;
30998;SDS011;20549;50.042;8.968;2023-04-09T07:48:38;7.87;;;7.08;;
30998;SDS011;20549;50.042;8.968;2023-04-09T07:51:04;8.25;;;7.45;;
30998;SDS011;20549;50.042;8.968;2023-04-09T07:53:31;8.38;;;7.37;;
30998;SDS011;20549;50.042;8.968;2023-04-09T07:55:58;8.95;;;7.37;;
30998;SDS011;20549;50.042;8.968;2023-04-09T07:58:24;7.70;;;7.03;;
30998;SDS011;20549;50.042;8.968;2023-04-09T08:00:51;8.30;;;7.50;;
30998;SDS011;20549;50.042;8.968;2023-04-09T08:03:17;8.13;;;7.33;;
30998;SDS011;20549;50.042;8.968;2023-04-09T08:05:44;8.05;;;7.03;;
30998;SDS011;20549;50.042;8.968;2023-04-09T08:08:11;8.28;;;7.45;;
30998;SDS011;20549;50.042;8.968;2023-04-09T08:10:37;8.60;;;7.80;;
30998;SDS011;20549;50.042;8.968;2023-04-09T08:13:04;7.58;;;6.95;;
30998;SDS011;20549;50.042;8.968;2023-04-09T08:15:30;8.88;;;7.97;;
30998;SDS011;20549;50.042;8.968;2023-04-09T08:17:57;8.23;;;7.42;;
30998;SDS011;20549;50.042;8.968;2023-04-09T08:23:38;7.83;;;7.12;;
30998;SDS011;20549;50.042;8.968;2023-04-09T08:26:04;7.85;;;6.95;;
30998;SDS011;20549;50.042;8.968;2023-04-09T08:28:31;8.23;;;7.42;;
30998;SDS011;20549;50.042;8.968;2023-04-09T08:30:57;7.12;;;6.42;;
30998;SDS011;20549;50.042;8.968;2023-04-09T08:33:24;7.80;;;7.10;;
30998;SDS011;20549;50.042;8.968;2023-04-09T08:35:51;7.97;;;7.28;;
30998;SDS011;20549;50.042;8.968;2023-04-09T08:38:17;7.53;;;6.62;;
30998;SDS011;20549;50.042;8.968;2023-04-09T08:40:44;7.45;;;6.75;;
30998;SDS011;20549;50.042;8.968;2023-04-09T08:43:12;7.85;;;6.80;;
30998;SDS011;20549;50.042;8.968;2023-04-09T08:45:38;7.30;;;6.67;;
30998;SDS011;20549;50.042;8.968;2023-04-09T08:48:03;7.92;;;7.22;;
30998;SDS011;20549;50.042;8.968;2023-04-09T08:50:30;6.90;;;6.30;;
30998;SDS011;20549;50.042;8.968;2023-04-09T08:52:57;7.30;;;6.60;;
30998;SDS011;20549;50.042;8.968;2023-04-09T08:55:23;6.33;;;5.72;;
30998;SDS011;20549;50.042;8.968;2023-04-09T08:57:50;6.75;;;6.15;;
30998;SDS011;20549;50.042;8.968;2023-04-09T09:00:16;6.72;;;6.20;;
30998;SDS011;20549;50.042;8.968;2023-04-09T09:05:35;7.08;;;6.45;;
30998;SDS011;20549;50.042;8.968;2023-04-09T09:08:01;6.60;;;6.10;;
30998;SDS011;20549;50.042;8.968;2023-04-09T09:13:20;7.00;;;6.50;;
30998;SDS011;20549;50.042;8.968;2023-04-09T09:15:48;6.53;;;6.03;;
30998;SDS011;20549;50.042;8.968;2023-04-09T09:18:14;6.87;;;6.28;;
30998;SDS011;20549;50.042;8.968;2023-04-09T09:20:40;7.15;;;6.55;;
30998;SDS011;20549;50.042;8.968;2023-04-09T09:23:07;7.45;;;6.85;;
30998;SDS011;20549;50.042;8.968;2023-04-09T09:25:37;6.42;;;5.83;;
30998;SDS011;20549;50.042;8.968;2023-04-09T09:28:09;8.43;;;7.72;;
30998;SDS011;20549;50.042;8.968;2023-04-09T09:30:36;7.47;;;6.87;;
30998;SDS011;20549;50.042;8.968;2023-04-09T09:33:08;6.40;;;5.90;;
30998;SDS011;20549;50.042;8.968;2023-04-09T09:35:47;6.47;;;5.95;;
30998;SDS011;20549;50.042;8.968;2023-04-09T09:38:16;6.45;;;5.90;;
30998;SDS011;20549;50.042;8.968;2023-04-09T09:40:42;5.62;;;5.20;;
30998;SDS011;20549;50.042;8.968;2023-04-09T09:43:09;6.37;;;5.78;;
30998;SDS011;20549;50.042;8.968;2023-04-09T09:45:35;6.12;;;5.62;;
30998;SDS011;20549;50.042;8.968;2023-04-09T09:48:02;6.47;;;5.97;;
30998;SDS011;20549;50.042;8.968;2023-04-09T09:50:29;6.97;;;6.45;;
30998;SDS011;20549;50.042;8.968;2023-04-09T09:53:00;5.75;;;5.33;;
30998;SDS011;20549;50.042;8.968;2023-04-09T09:55:24;5.67;;;5.28;;
30998;SDS011;20549;50.042;8.968;2023-04-09T09:57:51;5.87;;;5.37;;
30998;SDS011;20549;50.042;8.968;2023-04-09T10:00:17;6.25;;;5.75;;
30998;SDS011;20549;50.042;8.968;2023-04-09T10:02:47;5.97;;;5.45;;
30998;SDS011;20549;50.042;8.968;2023-04-09T10:05:10;6.78;;;6.17;;
30998;SDS011;20549;50.042;8.968;2023-04-09T10:07:37;5.83;;;5.33;;
30998;SDS011;20549;50.042;8.968;2023-04-09T10:10:03;6.05;;;5.55;;
30998;SDS011;20549;50.042;8.968;2023-04-09T10:12:30;6.42;;;5.85;;
30998;SDS011;20549;50.042;8.968;2023-04-09T10:14:57;6.15;;;5.65;;
30998;SDS011;20549;50.042;8.968;2023-04-09T10:17:23;6.45;;;5.87;;
30998;SDS011;20549;50.042;8.968;2023-04-09T10:20:00;6.42;;;5.80;;
30998;SDS011;20549;50.042;8.968;2023-04-09T10:22:38;5.85;;;5.35;;
30998;SDS011;20549;50.042;8.968;2023-04-09T10:25:04;5.87;;;5.47;;
30998;SDS011;20549;50.042;8.968;2023-04-09T10:27:31;5.67;;;5.08;;
30998;SDS011;20549;50.042;8.968;2023-04-09T10:29:58;5.90;;;5.40;;
30998;SDS011;20549;50.042;8.968;2023-04-09T10:32:27;6.87;;;6.28;;
30998;SDS011;20549;50.042;8.968;2023-04-09T10:34:56;5.72;;;5.22;;
30998;SDS011;20549;50.042;8.968;2023-04-09T10:37:23;6.20;;;5.60;;
30998;SDS011;20549;50.042;8.968;2023-04-09T10:39:49;6.20;;;5.60;;
30998;SDS011;20549;50.042;8.968;2023-04-09T10:42:21;6.65;;;6.05;;
30998;SDS011;20549;50.042;8.968;2023-04-09T10:45:03;4.97;;;4.58;;
30998;SDS011;20549;50.042;8.968;2023-04-09T10:47:33;6.08;;;5.35;;
30998;SDS011;20549;50.042;8.968;2023-04-09T10:50:12;5.45;;;4.90;;
30998;SDS011;20549;50.042;8.968;2023-04-09T10:52:28;5.80;;;5.30;;
30998;SDS011;20549;50.042;8.968;2023-04-09T10:54:52;5.45;;;4.95;;
30998;SDS011;20549;50.042;8.968;2023-04-09T10:57:19;5.28;;;4.83;;
30998;SDS011;20549;50.042;8.968;2023-04-09T10:59:48;5.35;;;4.87;;
30998;SDS011;20549;50.042;8.968;2023-04-09T11:07:48;4.65;;;4.28;;
30998;SDS011;20549;50.042;8.968;2023-04-09T11:10:10;4.50;;;4.20;;
30998;SDS011;20549;50.042;8.968;2023-04-09T11:12:37;5.45;;;4.97;;
30998;SDS011;20549;50.042;8.968;2023-04-09T11:15:03;5.20;;;4.80;;
30998;SDS011;20549;50.042;8.968;2023-04-09T11:17:30;5.47;;;4.97;;
30998;SDS011;20549;50.042;8.968;2023-04-09T11:19:56;5.80;;;5.25;;
30998;SDS011;20549;50.042;8.968;2023-04-09T11:22:23;5.50;;;5.00;;
30998;SDS011;20549;50.042;8.968;2023-04-09T11:24:50;5.22;;;4.78;;
30998;SDS011;20549;50.042;8.968;2023-04-09T11:27:16;4.30;;;4.00;;
30998;SDS011;20549;50.042;8.968;2023-04-09T11:29:43;5.10;;;4.70;;
30998;SDS011;20549;50.042;8.968;2023-04-09T11:32:11;5.00;;;4.60;;
30998;SDS011;20549;50.042;8.968;2023-04-09T11:34:36;4.92;;;4.53;;
30998;SDS011;20549;50.042;8.968;2023-04-09T11:37:03;5.15;;;4.75;;
30998;SDS011;20549;50.042;8.968;2023-04-09T11:39:29;4.72;;;4.33;;
30998;SDS011;20549;50.042;8.968;2023-04-09T11:41:56;4.62;;;4.25;;
30998;SDS011;20549;50.042;8.968;2023-04-09T11:44:22;5.25;;;4.60;;
30998;SDS011;20549;50.042;8.968;2023-04-09T11:46:49;4.40;;;4.00;;
30998;SDS011;20549;50.042;8.968;2023-04-09T11:49:16;5.03;;;4.62;;
30998;SDS011;20549;50.042;8.968;2023-04-09T11:51:42;5.10;;;4.70;;
30998;SDS011;20549;50.042;8.968;2023-04-09T11:54:09;4.92;;;4.53;;
30998;SDS011;20549;50.042;8.968;2023-04-09T11:56:35;5.10;;;4.65;;
30998;SDS011;20549;50.042;8.968;2023-04-09T11:59:02;4.12;;;3.83;;
30998;SDS011;20549;50.042;8.968;2023-04-09T12:01:31;4.70;;;4.30;;
30998;SDS011;20549;50.042;8.968;2023-04-09T12:03:58;4.50;;;4.05;;
30998;SDS011;20549;50.042;8.968;2023-04-09T12:06:25;4.62;;;4.22;;
30998;SDS011;20549;50.042;8.968;2023-04-09T12:08:57;4.72;;;4.33;;
30998;SDS011;20549;50.042;8.968;2023-04-09T12:11:27;4.70;;;4.30;;
30998;SDS011;20549;50.042;8.968;2023-04-09T12:13:59;4.37;;;4.03;;
30998;SDS011;20549;50.042;8.968;2023-04-09T12:16:25;4.25;;;3.85;;
30998;SDS011;20549;50.042;8.968;2023-04-09T12:18:52;3.98;;;3.67;;
30998;SDS011;20549;50.042;8.968;2023-04-09T12:21:19;4.40;;;4.00;;
30998;SDS011;20549;50.042;8.968;2023-04-09T12:23:45;4.00;;;3.65;;
30998;SDS011;20549;50.042;8.968;2023-04-09T12:26:12;4.30;;;4.00;;
30998;SDS011;20549;50.042;8.968;2023-04-09T12:28:38;4.53;;;4.12;;
30998;SDS011;20549;50.042;8.968;2023-04-09T12:31:08;4.10;;;3.77;;
30998;SDS011;20549;50.042;8.968;2023-04-09T12:33:31;4.72;;;4.30;;
30998;SDS011;20549;50.042;8.968;2023-04-09T12:35:58;4.33;;;3.92;;
30998;SDS011;20549;50.042;8.968;2023-04-09T12:38:25;3.87;;;3.58;;
30998;SDS011;20549;50.042;8.968;2023-04-09T12:40:51;4.58;;;4.17;;
30998;SDS011;20549;50.042;8.968;2023-04-09T12:43:18;4.10;;;3.70;;
30998;SDS011;20549;50.042;8.968;2023-04-09T12:45:44;4.65;;;4.25;;
30998;SDS011;20549;50.042;8.968;2023-04-09T12:48:11;3.85;;;3.55;;
30998;SDS011;20549;50.042;8.968;2023-04-09T12:50:38;4.70;;;4.28;;
30998;SDS011;20549;50.042;8.968;2023-04-09T12:53:04;4.47;;;4.08;;
30998;SDS011;20549;50.042;8.968;2023-04-09T12:55:31;4.60;;;4.20;;
30998;SDS011;20549;50.042;8.968;2023-04-09T12:57:57;4.00;;;3.67;;
30998;SDS011;20549;50.042;8.968;2023-04-09T13:00:24;3.98;;;3.62;;
30998;SDS011;20549;50.042;8.968;2023-04-09T13:02:51;3.85;;;3.55;;
30998;SDS011;20549;50.042;8.968;2023-04-09T13:05:17;3.95;;;3.55;;
30998;SDS011;20549;50.042;8.968;2023-04-09T13:07:44;3.72;;;3.42;;
30998;SDS011;20549;50.042;8.968;2023-04-09T13:10:10;3.50;;;3.20;;
30998;SDS011;20549;50.042;8.968;2023-04-09T13:12:37;5.10;;;3.17;;
30998;SDS011;20549;50.042;8.968;2023-04-09T13:15:03;3.15;;;2.95;;
30998;SDS011;20549;50.042;8.968;2023-04-09T13:17:30;3.60;;;3.30;;
30998;SDS011;20549;50.042;8.968;2023-04-09T13:19:57;3.50;;;3.20;;
30998;SDS011;20549;50.042;8.968;2023-04-09T13:22:23;3.60;;;3.30;;
30998;SDS011;20549;50.042;8.968;2023-04-09T13:24:50;3.70;;;3.40;;
30998;SDS011;20549;50.042;8.968;2023-04-09T13:27:16;3.72;;;3.40;;
30998;SDS011;20549;50.042;8.968;2023-04-09T13:29:43;3.87;;;3.58;;
30998;SDS011;20549;50.042;8.968;2023-04-09T13:32:10;3.80;;;3.47;;
30998;SDS011;20549;50.042;8.968;2023-04-09T13:34:37;3.70;;;3.42;;
30998;SDS011;20549;50.042;8.968;2023-04-09T13:37:03;3.45;;;3.15;;
30998;SDS011;20549;50.042;8.968;2023-04-09T13:39:29;3.42;;;3.12;;
30998;SDS011;20549;50.042;8.968;2023-04-09T13:41:56;3.80;;;3.50;;
30998;SDS011;20549;50.042;8.968;2023-04-09T13:44:26;3.00;;;2.80;;
30998;SDS011;20549;50.042;8.968;2023-04-09T13:46:52;3.45;;;3.15;;
30998;SDS011;20549;50.042;8.968;2023-04-09T13:49:19;3.50;;;3.20;;
30998;SDS011;20549;50.042;8.968;2023-04-09T13:51:45;3.90;;;3.60;;
30998;SDS011;20549;50.042;8.968;2023-04-09T13:54:12;3.05;;;2.85;;
30998;SDS011;20549;50.042;8.968;2023-04-09T13:56:38;2.62;;;2.42;;
30998;SDS011;20549;50.042;8.968;2023-04-09T13:59:05;3.40;;;3.10;;
30998;SDS011;20549;50.042;8.968;2023-04-09T14:01:32;2.90;;;2.70;;
30998;SDS011;20549;50.042;8.968;2023-04-09T14:03:58;3.27;;;2.98;;
30998;SDS011;20549;50.042;8.968;2023-04-09T14:06:25;3.40;;;3.10;;
30998;SDS011;20549;50.042;8.968;2023-04-09T14:08:51;2.90;;;2.70;;
30998;SDS011;20549;50.042;8.968;2023-04-09T14:11:18;3.10;;;2.90;;
30998;SDS011;20549;50.042;8.968;2023-04-09T14:13:45;3.35;;;3.10;;
30998;SDS011;20549;50.042;8.968;2023-04-09T14:16:11;3.02;;;2.80;;
30998;SDS011;20549;50.042;8.968;2023-04-09T14:18:38;2.98;;;2.77;;
30998;SDS011;20549;50.042;8.968;2023-04-09T14:21:05;3.12;;;2.92;;
30998;SDS011;20549;50.042;8.968;2023-04-09T14:23:31;4.42;;;4.03;;
30998;SDS011;20549;50.042;8.968;2023-04-09T14:25:58;4.03;;;3.70;;
30998;SDS011;20549;50.042;8.968;2023-04-09T14:28:24;4.15;;;3.85;;
30998;SDS011;20549;50.042;8.968;2023-04-09T14:30:51;3.67;;;3.08;;
30998;SDS011;20549;50.042;8.968;2023-04-09T14:33:17;3.67;;;2.95;;
30998;SDS011;20549;50.042;8.968;2023-04-09T14:35:44;2.92;;;2.72;;
30998;SDS011;20549;50.042;8.968;2023-04-09T14:38:11;2.67;;;2.47;;
30998;SDS011;20549;50.042;8.968;2023-04-09T14:40:37;2.62;;;2.42;;
30998;SDS011;20549;50.042;8.968;2023-04-09T14:43:04;2.67;;;2.47;;
30998;SDS011;20549;50.042;8.968;2023-04-09T14:45:30;2.75;;;2.55;;
30998;SDS011;20549;50.042;8.968;2023-04-09T14:47:57;2.75;;;2.55;;
30998;SDS011;20549;50.042;8.968;2023-04-09T14:50:23;2.85;;;2.65;;
30998;SDS011;20549;50.042;8.968;2023-04-09T14:52:50;2.95;;;2.75;;
30998;SDS011;20549;50.042;8.968;2023-04-09T14:55:17;2.75;;;2.55;;
30998;SDS011;20549;50.042;8.968;2023-04-09T14:57:43;3.12;;;2.92;;
30998;SDS011;20549;50.042;8.968;2023-04-09T15:00:10;3.05;;;2.85;;
30998;SDS011;20549;50.042;8.968;2023-04-09T15:02:36;3.00;;;2.77;;
30998;SDS011;20549;50.042;8.968;2023-04-09T15:05:03;3.40;;;3.10;;